Terminal Aerodrome Forecast
Issued by NWS

Current Version | Previous Version | Text Only | Print | Product List | Glossary On
Versions: 1 2 3 4 5 6 7 8 9 10 11 12 13 14 15 16 17 18 19 20 21 22 23 24
000
FTUS41 KOKX 061130
TAFSWF
TAF
KSWF 061130Z 0612/0718 00000KT 3SM BR VCFG SCT002 SCT060
     FM061300 24004KT P6SM FEW060 BKN250
     FM061500 22006KT P6SM BKN200
     FM061800 20008KT P6SM FEW050 BKN150
     FM062100 17007KT P6SM SCT070 BKN120
     FM070000 16007KT P6SM SCT050 BKN100
     FM070500 16004KT 5SM BR BKN015 PROB30 0709/0712 4SM -SHRA BR
      OVC010
     FM071400 21009KT 4SM -SHRA BR VCTS BKN040CB
      AMD NOT SKED=

USA.gov is the U.S. government's official web portal to all federal, state and local government web resources and services.